»·PEaware :: N619PA KCRQ-KSAN

N619PA :: KCRQ-KSAN

FLIGHT INFORMATION

Flight Status: Arrived
Operator: Privately registered:
United States
More flights under this callsign
Pilot: Anonymous 15452 (15452)
Aircraft: Unknown
(TBM9)
More flights by this aircraft type
Origin: KCRQ McClellan-Palomar
United States
Destination: KSAN San Diego Intl-Lindbergh
United States
More flights between these airports :: More routes between these airports
Route: MZB V66 RYAHH
File this flight plan on PilotEdge
Remarks:
Altitude:
(Current/Filed)
5,000ft
Speed:
(Current/Filed)
250kts
Departed: 06-Jan-18 11:44 AM
Arrived: 06-Jan-18 12:21 PM
Distance/Time
Traveled:
24nm/0:37
Distance/Time
To Go:
Arrived

Flight Plot

Page will automatically refresh every two minutes.


Map Options




Map Legend


Flown Route
Filed Route
Departure Airport
Arrival Airport
Navaid (VOR, NDB)
Fix

Horizontal Profiles

Position Reports

Time Latitude Longitude Heading Altitude Ground
Speed
06-Jan-18 11:25 33.127362 -117.277214 350 320ft 0kts
06-Jan-18 11:26 33.127362 -117.277214 350 320ft 0kts
06-Jan-18 11:27 33.127362 -117.277214 350 320ft 0kts
06-Jan-18 11:28 33.127362 -117.277214 350 320ft 0kts
06-Jan-18 11:29 33.127362 -117.277214 350 320ft 0kts
06-Jan-18 11:30 33.127362 -117.277214 350 320ft 0kts
06-Jan-18 11:31 33.127362 -117.277214 350 320ft 0kts
06-Jan-18 11:32 33.127362 -117.277214 350 320ft 0kts
06-Jan-18 11:33 33.127362 -117.277214 350 320ft 0kts
06-Jan-18 11:34 33.127362 -117.277214 350 320ft 0kts
06-Jan-18 11:35 33.127362 -117.277214 350 320ft 0kts
06-Jan-18 11:36 33.127362 -117.277214 350 320ft 0kts
06-Jan-18 11:37 33.127362 -117.277214 350 320ft 0kts
06-Jan-18 11:38 33.127362 -117.277214 350 320ft 0kts
06-Jan-18 11:39 33.127362 -117.277214 350 320ft 0kts
06-Jan-18 11:40 33.127362 -117.277214 350 320ft 0kts
06-Jan-18 11:41 33.127362 -117.277214 350 320ft 0kts
06-Jan-18 11:42 33.127362 -117.277214 350 320ft 0kts
06-Jan-18 11:43 33.127362 -117.277214 350 320ft 0kts
06-Jan-18 11:44 33.127362 -117.277214 350 320ft 0kts
06-Jan-18 11:45 33.127362 -117.277214 350 320ft 0kts
06-Jan-18 11:46 33.127937 -117.276929 79 320ft 6kts
06-Jan-18 11:47 33.128387 -117.274135 79 326ft 14kts
06-Jan-18 11:48 33.128631 -117.272922 50 328ft 0kts
06-Jan-18 11:49 33.129178 -117.272298 1 329ft 11kts
06-Jan-18 11:50 33.127253 -117.291006 266 891ft 114kts
06-Jan-18 11:51 33.121960 -117.333335 261 2480ft 134kts
06-Jan-18 11:52 33.114893 -117.383934 261 3020ft 188kts
06-Jan-18 11:53 33.104393 -117.458595 261 2991ft 195kts
06-Jan-18 11:54 33.096901 -117.511677 261 2996ft 196kts
06-Jan-18 11:55 33.088599 -117.576279 261 3000ft 198kts
06-Jan-18 11:56 33.081686 -117.641338 261 3000ft 198kts
06-Jan-18 11:57 33.074204 -117.696725 234 2983ft 196kts
06-Jan-18 11:58 33.040280 -117.683584 116 4231ft 145kts
06-Jan-18 11:59 33.022304 -117.637467 116 5023ft 182kts
06-Jan-18 12:00 32.999668 -117.580036 116 4972ft 195kts
06-Jan-18 12:01 32.976130 -117.522613 116 4960ft 199kts
06-Jan-18 12:02 32.949797 -117.464720 116 4970ft 206kts
06-Jan-18 12:03 32.923921 -117.406537 116 4967ft 206kts
06-Jan-18 12:04 32.899960 -117.351834 116 4967ft 204kts
06-Jan-18 12:05 32.877326 -117.299940 116 4969ft 204kts
06-Jan-18 12:06 32.851484 -117.240652 116 4973ft 204kts
06-Jan-18 12:07 32.825600 -117.181081 116 4976ft 204kts
06-Jan-18 12:08 32.807824 -117.125535 101 5004ft 192kts
06-Jan-18 12:09 32.795849 -117.060620 101 4985ft 205kts
06-Jan-18 12:10 32.784011 -116.996573 101 4984ft 194kts
06-Jan-18 12:11 32.772421 -116.934122 101 4987ft 194kts
06-Jan-18 12:12 32.760858 -116.871739 101 4988ft 193kts
06-Jan-18 12:13 32.749377 -116.809874 101 4985ft 190kts
06-Jan-18 12:14 32.738018 -116.748948 101 4986ft 189kts
06-Jan-18 12:15 32.726718 -116.688484 101 4986ft 188kts
06-Jan-18 12:16 32.694437 -116.660142 224 4997ft 191kts
06-Jan-18 12:17 32.676852 -116.718753 251 4983ft 189kts
06-Jan-18 12:18 32.661509 -116.777506 251 4983ft 188kts
06-Jan-18 12:19 32.647646 -116.836604 275 4969ft 191kts
06-Jan-18 12:20 32.662005 -116.896305 284 4885ft 196kts
06-Jan-18 12:21 32.676650 -116.956449 287 3939ft 180kts
06-Jan-18 12:22 32.689082 -117.007317 287 3178ft 169kts
06-Jan-18 12:23 32.700860 -117.055534 287 2522ft 130kts
06-Jan-18 12:24 32.711420 -117.098440 286 1911ft 161kts
06-Jan-18 12:25 32.722375 -117.143758 285 912ft 122kts
06-Jan-18 12:26 32.730251 -117.176114 286 140ft 85kts
06-Jan-18 12:27 32.734837 -117.190119 102 17ft 23kts
06-Jan-18 12:28 32.731975 -117.178249 105 18ft 25kts
06-Jan-18 12:29 32.732079 -117.176420 191 23ft 0kts
06-Jan-18 12:30 32.732079 -117.176420 191 23ft 0kts
06-Jan-18 12:31 32.732079 -117.176420 191 23ft 0kts

Navigation Log

Ident Type
1. KCRQ Airport
2. MZB Navaid
3. HAILE Fix
4. RYAHH Fix
5. KSAN Airport